Time;durP1;ratioP1;P1;durP2;ratioP2;P2;SDS_P1;SDS_P2;PMS_P1;PMS_P2;Temp;Humidity;BMP_temperature;BMP_pressure;BME280_temperature;BME280_humidity;BME280_pressure;Samples;Min_cycle;Max_cycle;Signal;HPM_P1;HPM_P2
2023/07/30 00:03:47;;;;;;;15.23;7.25;;;;;;;11.49;100.00;100769.34;10427417;28;20095;-73
2023/07/30 00:08:51;;;;;;;15.32;7.93;;;;;;;11.48;100.00;100768.47;10442151;28;20123;-73
2023/07/30 00:13:55;;;;;;;21.48;8.48;;;;;;;11.50;100.00;100766.81;10477219;28;20049;-73
2023/07/30 00:18:56;;;;;;;13.25;6.50;;;;;;;11.55;100.00;100759.13;10484064;28;20045;-73
2023/07/30 00:23:57;;;;;;;14.77;8.38;;;;;;;11.50;100.00;100758.94;10468377;28;20040;-73
2023/07/30 00:28:57;;;;;;;18.52;8.20;;;;;;;11.42;100.00;100763.84;10518627;28;20059;-73
2023/07/30 00:33:58;;;;;;;21.63;7.07;;;;;;;11.33;100.00;100767.81;10482410;28;20045;-73
2023/07/30 00:38:59;;;;;;;14.65;8.07;;;;;;;11.37;100.00;100767.13;10472889;28;20385;-73
2023/07/30 00:43:59;;;;;;;14.65;6.60;;;;;;;11.40;100.00;100759.38;10485823;28;20048;-72
2023/07/30 00:49:00;;;;;;;21.80;11.05;;;;;;;11.38;100.00;100766.28;10481961;28;20044;-73
2023/07/30 00:54:01;;;;;;;15.55;8.02;;;;;;;11.35;100.00;100767.03;10466671;28;20405;-73
2023/07/30 00:59:01;;;;;;;16.48;7.05;;;;;;;11.34;100.00;100770.50;10485042;28;20032;-73
2023/07/30 01:04:03;;;;;;;13.50;6.53;;;;;;;11.37;100.00;100781.09;10467509;28;20067;-72
2023/07/30 01:09:03;;;;;;;15.45;7.60;;;;;;;11.22;100.00;100785.69;10464436;28;20033;-73
2023/07/30 01:14:05;;;;;;;14.55;6.35;;;;;;;11.21;100.00;100787.41;10483496;28;20384;-73
2023/07/30 01:19:06;;;;;;;18.57;8.30;;;;;;;11.11;100.00;100795.69;10465511;28;20040;-72
2023/07/30 01:24:06;;;;;;;18.60;7.80;;;;;;;11.17;100.00;100793.34;10499779;28;20408;-72
2023/07/30 01:29:15;;;;;;;13.38;6.55;;;;;;;11.17;100.00;100788.09;10482556;28;20051;-72
2023/07/30 01:34:15;;;;;;;16.73;7.00;;;;;;;11.15;100.00;100793.25;10466935;28;20029;-73
2023/07/30 01:39:16;;;;;;;18.00;7.57;;;;;;;11.06;100.00;100797.22;10479988;28;20119;-73
2023/07/30 01:44:17;;;;;;;14.88;6.82;;;;;;;11.08;100.00;100795.56;10461709;28;20042;-72
2023/07/30 01:49:18;;;;;;;18.05;9.00;;;;;;;11.15;100.00;100800.25;10483305;28;20040;-72
2023/07/30 01:54:18;;;;;;;18.52;7.93;;;;;;;11.09;100.00;100795.63;10481547;28;20116;-73
2023/07/30 01:59:19;;;;;;;17.40;7.75;;;;;;;11.06;100.00;100802.44;10481398;28;20037;-73
2023/07/30 02:04:19;;;;;;;17.73;8.63;;;;;;;10.97;100.00;100798.59;10483403;28;20032;-74
2023/07/30 02:09:21;;;;;;;16.08;7.90;;;;;;;10.93;100.00;100804.53;10479745;28;20097;-73
2023/07/30 02:14:21;;;;;;;19.70;7.87;;;;;;;10.85;100.00;100798.91;10483111;28;20039;-73
2023/07/30 02:19:22;;;;;;;23.63;8.75;;;;;;;10.80;100.00;100797.81;10482632;28;20174;-74
2023/07/30 02:24:22;;;;;;;17.63;7.05;;;;;;;10.85;100.00;100798.91;10481506;28;20127;-74
2023/07/30 02:29:23;;;;;;;17.20;10.73;;;;;;;11.08;100.00;100803.41;10481633;28;20132;-74
2023/07/30 02:34:23;;;;;;;15.48;7.50;;;;;;;11.05;100.00;100796.31;10493077;28;20263;-75
2023/07/30 02:39:24;;;;;;;14.40;8.05;;;;;;;11.01;100.00;100790.06;10472213;28;20124;-73
2023/07/30 02:44:24;;;;;;;15.93;8.52;;;;;;;11.09;100.00;100787.75;10483675;28;20632;-73
2023/07/30 02:49:25;;;;;;;17.45;7.15;;;;;;;10.98;100.00;100791.63;10476926;28;20039;-73
2023/07/30 02:54:25;;;;;;;19.40;7.43;;;;;;;10.97;100.00;100790.75;10485162;28;20464;-73
2023/07/30 02:59:27;;;;;;;19.13;7.75;;;;;;;10.95;100.00;100781.91;10490492;28;20119;-73
2023/07/30 03:04:27;;;;;;;19.07;7.63;;;;;;;10.94;100.00;100784.44;10489222;28;20043;-73
2023/07/30 03:09:28;;;;;;;14.38;6.13;;;;;;;10.84;100.00;100781.41;10487741;28;20076;-73
2023/07/30 03:14:29;;;;;;;17.70;8.23;;;;;;;10.91;100.00;100798.31;10487970;28;20488;-73
2023/07/30 03:19:29;;;;;;;14.68;7.60;;;;;;;10.92;100.00;100793.97;10488761;28;20036;-74
2023/07/30 03:24:30;;;;;;;17.10;8.20;;;;;;;11.05;100.00;100800.66;10487454;28;20063;-73
2023/07/30 03:29:30;;;;;;;22.95;7.50;;;;;;;11.18;100.00;100797.75;10489034;28;20170;-74
2023/07/30 03:34:31;;;;;;;19.38;7.95;;;;;;;11.27;100.00;100799.88;10489037;28;20036;-74
2023/07/30 03:39:32;;;;;;;21.70;8.57;;;;;;;11.38;100.00;100797.72;10485641;28;20763;-75
2023/07/30 03:44:32;;;;;;;20.13;8.43;;;;;;;11.50;100.00;100802.59;10488510;28;20055;-73
2023/07/30 03:49:33;;;;;;;20.67;8.32;;;;;;;11.59;100.00;100803.91;10468746;28;20173;-74
2023/07/30 03:54:33;;;;;;;14.20;6.53;;;;;;;11.69;100.00;100806.91;10467985;28;20037;-74
2023/07/30 03:59:34;;;;;;;25.73;9.77;;;;;;;11.77;100.00;100822.94;10486322;28;20048;-74
2023/07/30 04:04:34;;;;;;;16.85;7.28;;;;;;;11.82;100.00;100818.78;10486561;28;20116;-73
2023/07/30 04:09:35;;;;;;;23.48;8.82;;;;;;;11.90;100.00;100820.00;10455202;28;20586;-73
2023/07/30 04:14:35;;;;;;;18.73;8.18;;;;;;;12.01;100.00;100820.50;10519118;28;20074;-73
2023/07/30 04:19:36;;;;;;;13.60;7.47;;;;;;;12.07;100.00;100831.25;10485774;28;20044;-74
2023/07/30 04:24:36;;;;;;;22.83;9.00;;;;;;;12.17;100.00;100825.53;10485726;28;20421;-73
2023/07/30 04:29:37;;;;;;;16.35;6.55;;;;;;;12.27;100.00;100826.78;10487616;28;20037;-74
2023/07/30 04:34:37;;;;;;;18.70;7.18;;;;;;;12.43;100.00;100828.31;10519506;28;20048;-74
2023/07/30 04:39:38;;;;;;;17.58;7.60;;;;;;;12.52;100.00;100819.00;10484948;28;20486;-73
2023/07/30 04:44:38;;;;;;;16.30;6.88;;;;;;;12.63;100.00;100812.44;10429456;28;20041;-73
2023/07/30 04:49:40;;;;;;;19.85;7.50;;;;;;;12.70;100.00;100817.06;10434489;28;20095;-73
2023/07/30 04:54:40;;;;;;;26.07;9.60;;;;;;;12.82;100.00;100824.50;10442621;28;20068;-73
2023/07/30 04:59:41;;;;;;;19.88;8.13;;;;;;;12.88;100.00;100813.34;10443448;28;20052;-73
2023/07/30 05:04:46;;;;;;;12.32;6.75;;;;;;;13.00;100.00;100833.91;10438166;28;20080;-73
2023/07/30 05:09:50;;;;;;;15.20;5.47;;;;;;;13.06;100.00;100824.53;10427225;28;20094;-72
2023/07/30 05:14:58;;;;;;;21.00;7.15;;;;;;;13.01;100.00;100840.97;10442738;28;20132;-73
2023/07/30 05:20:04;;;;;;;16.15;4.25;;;;;;;13.03;100.00;100831.41;10406048;28;20037;-73
2023/07/30 05:25:14;;;;;;;16.70;5.05;;;;;;;13.13;100.00;100830.03;10471076;28;20405;-73
2023/07/30 05:30:21;;;;;;;13.15;3.70;;;;;;;13.21;100.00;100834.72;10440724;28;20075;-73
2023/07/30 05:35:26;;;;;;;16.02;5.75;;;;;;;13.33;100.00;100831.66;10428559;28;20086;-73
2023/07/30 05:40:31;;;;;;;9.20;3.60;;;;;;;13.41;100.00;100829.28;10424685;28;20041;-73
2023/07/30 05:45:41;;;;;;;7.47;3.90;;;;;;;13.38;100.00;100830.91;10438454;28;20496;-72
2023/07/30 05:50:46;;;;;;;11.15;2.90;;;;;;;13.42;100.00;100832.84;10438339;28;20036;-73
2023/07/30 05:55:50;;;;;;;8.10;2.67;;;;;;;13.60;100.00;100832.59;10424336;28;20064;-73
2023/07/30 06:00:54;;;;;;;6.30;2.70;;;;;;;13.82;100.00;100834.22;10438552;28;20080;-74
2023/07/30 06:06:00;;;;;;;10.30;4.32;;;;;;;13.99;100.00;100820.75;10407890;28;20037;-74
2023/07/30 06:11:04;;;;;;;9.13;3.53;;;;;;;14.05;100.00;100821.81;10421586;28;20069;-74
2023/07/30 06:16:08;;;;;;;13.50;3.13;;;;;;;14.19;100.00;100819.66;10438874;28;20501;-73
2023/07/30 06:21:17;;;;;;;13.75;4.97;;;;;;;14.36;100.00;100822.81;10472014;28;20086;-73
2023/07/30 06:26:22;;;;;;;18.65;3.17;;;;;;;14.71;100.00;100832.69;10475759;28;20055;-73
2023/07/30 06:31:27;;;;;;;7.97;2.00;;;;;;;14.98;100.00;100814.13;10468398;28;20032;-73
2023/07/30 06:36:31;;;;;;;9.50;4.43;;;;;;;15.36;100.00;100807.25;10436761;28;20033;-73
2023/07/30 06:41:32;;;;;;;6.43;2.08;;;;;;;15.82;100.00;100805.81;10438427;28;20468;-73
2023/07/30 06:46:41;;;;;;;9.35;3.40;;;;;;;16.26;100.00;100814.81;10413923;28;20448;-73
2023/07/30 06:51:52;;;;;;;7.13;2.53;;;;;;;16.24;100.00;100821.81;10470183;28;20044;-73
2023/07/30 06:56:53;;;;;;;12.30;3.97;;;;;;;16.06;100.00;100827.56;10467967;28;20028;-74
2023/07/30 07:01:55;;;;;;;10.30;2.72;;;;;;;16.15;100.00;100846.25;10458836;28;20044;-74
2023/07/30 07:06:56;;;;;;;10.70;2.77;;;;;;;16.20;100.00;100849.91;10477106;28;20925;-73
2023/07/30 07:11:58;;;;;;;8.98;3.92;;;;;;;16.35;100.00;100864.34;10426493;28;20036;-73
2023/07/30 07:17:05;;;;;;;9.70;4.32;;;;;;;16.36;100.00;100852.91;10461201;28;20036;-74
2023/07/30 07:22:08;;;;;;;19.23;3.88;;;;;;;16.32;100.00;100862.50;10476412;28;20049;-74
2023/07/30 07:27:21;;;;;;;8.60;2.85;;;;;;;16.21;100.00;100862.25;10473952;28;20408;-73
2023/07/30 07:32:22;;;;;;;9.70;3.53;;;;;;;16.29;100.00;100884.47;10449801;28;20400;-73
2023/07/30 07:37:25;;;;;;;11.20;3.53;;;;;;;16.33;100.00;100889.81;10499143;28;20033;-77
2023/07/30 07:42:29;;;;;;;17.35;3.83;;;;;;;16.51;100.00;100890.25;10483088;28;20514;-75
2023/07/30 07:47:30;;;;;;;17.30;4.57;;;;;;;16.88;100.00;100879.63;10483960;28;20040;-75
2023/07/30 07:52:35;;;;;;;10.27;3.75;;;;;;;17.07;100.00;100888.88;10466541;28;20405;-75
2023/07/30 07:57:42;;;;;;;16.33;4.40;;;;;;;17.69;100.00;100876.88;10479883;28;20127;-76
2023/07/30 08:02:44;;;;;;;11.38;5.45;;;;;;;19.27;100.00;100858.97;10492203;28;20032;-76
2023/07/30 08:07:50;;;;;;;8.05;3.85;;;;;;;21.78;100.00;100863.31;10482610;28;20040;-74
2023/07/30 08:12:51;;;;;;;12.70;3.55;;;;;;;23.90;100.00;100882.28;10484888;28;20496;-75
2023/07/30 08:17:52;;;;;;;7.63;2.77;;;;;;;24.78;100.00;100888.69;10428159;28;20132;-75
2023/07/30 08:22:54;;;;;;;11.68;3.33;;;;;;;25.07;100.00;100914.22;10427685;28;20172;-75
2023/07/30 08:27:56;;;;;;;10.80;4.75;;;;;;;25.09;100.00;100919.56;10442869;28;20041;-74
2023/07/30 08:32:56;;;;;;;;;;;;;;;22.82;100.00;100923.72;10435618;28;20120;-75
2023/07/30 08:37:59;;;;;;;17.00;3.60;;;;;;;20.82;100.00;100909.06;10442350;28;20279;-77
2023/07/30 08:43:01;;;;;;;9.90;4.18;;;;;;;22.10;100.00;100907.75;10435745;28;20040;-76
2023/07/30 08:48:02;;;;;;;13.20;4.82;;;;;;;22.48;100.00;100905.13;10393869;28;20068;-76
2023/07/30 08:53:03;;;;;;;12.38;6.45;;;;;;;21.92;100.00;100911.28;10410674;28;20052;-74
2023/07/30 08:58:04;;;;;;;8.30;4.50;;;;;;;;;;10431228;28;20033;-76
2023/07/30 09:03:06;;;;;;;;;;;;;;;21.56;100.00;100921.84;10437085;28;20280;-76
2023/07/30 09:08:07;;;;;;;8.27;2.85;;;;;;;21.98;100.00;100916.63;10471703;28;19924;-75
2023/07/30 09:13:12;;;;;;;7.63;2.80;;;;;;;20.49;100.00;100915.03;10455835;28;20044;-74
2023/07/30 09:18:13;;;;;;;14.00;3.83;;;;;;;19.17;100.00;100901.31;10486330;28;20523;-74
2023/07/30 09:23:14;;;;;;;24.83;6.13;;;;;;;17.85;100.00;100899.22;10431320;28;20045;-74
2023/07/30 09:28:16;;;;;;;10.50;3.30;;;;;;;17.24;100.00;100906.84;10441416;28;20041;-74
2023/07/30 09:33:21;;;;;;;14.00;3.60;;;;;;;18.63;100.00;100901.41;10420498;28;20041;-75
2023/07/30 09:38:23;;;;;;;7.70;2.40;;;;;;;23.22;100.00;100898.69;10431164;28;20033;-75
2023/07/30 09:43:32;;;;;;;6.13;2.33;;;;;;;25.15;100.00;100935.56;10422811;28;20123;-75
2023/07/30 09:48:33;;;;;;;8.82;4.20;;;;;;;23.28;100.00;100931.63;10455478;28;20037;-74
2023/07/30 09:53:34;;;;;;;;;;;;;;;20.74;100.00;100928.50;10481933;28;20047;-76
2023/07/30 09:58:37;;;;;;;5.15;3.08;;;;;;;19.41;100.00;100917.50;10480165;28;19925;-75
2023/07/30 10:03:39;;;;;;;9.18;2.63;;;;;;;18.44;100.00;100908.19;10446298;28;20102;-76
2023/07/30 10:08:41;;;;;;;8.98;2.95;;;;;;;17.79;100.00;100914.97;10413348;28;20382;-75
2023/07/30 10:13:44;;;;;;;;;;;;;;;18.23;100.00;100924.63;10418912;28;21426;-77
2023/07/30 10:18:51;;;;;;;11.73;2.95;;;;;;;18.92;100.00;100915.94;10477611;28;20318;-75
2023/07/30 10:24:02;;;;;;;8.55;2.38;;;;;;;19.98;100.00;100901.31;10459377;28;20521;-75
2023/07/30 10:29:19;;;;;;;18.10;6.40;;;;;;;23.51;100.00;100916.38;10463347;28;20128;-75
2023/07/30 10:34:20;;;;;;;12.43;4.30;;;;;;;23.68;100.00;100946.56;10473687;28;20040;-76
2023/07/30 10:39:26;;;;;;;8.43;3.23;;;;;;;23.33;100.00;100939.59;10437867;28;20059;-74
2023/07/30 10:44:28;;;;;;;8.80;3.13;;;;;;;22.91;100.00;100962.81;10416091;28;20052;-77
2023/07/30 10:49:30;;;;;;;10.18;3.70;;;;;;;22.18;100.00;100966.38;10412285;28;20037;-76
2023/07/30 10:54:34;;;;;;;;;;;;;;;22.97;100.00;100969.06;10436531;28;20045;-76
2023/07/30 10:59:38;;;;;;;9.07;2.00;;;;;;;22.68;100.00;100970.00;10436223;28;19925;-74
2023/07/30 11:04:38;;;;;;;6.47;2.05;;;;;;;21.44;100.00;100984.78;10435084;28;20114;-77
2023/07/30 11:09:39;;;;;;;6.60;2.70;;;;;;;21.07;100.00;100988.16;10439303;28;20094;-77
2023/07/30 11:14:40;;;;;;;8.43;2.07;;;;;;;22.52;100.00;100987.75;10440438;28;20048;-75
2023/07/30 11:19:43;;;;;;;7.67;1.30;;;;;;;23.82;100.00;100991.91;10443222;28;20064;-76
2023/07/30 11:24:43;;;;;;;4.90;1.20;;;;;;;24.44;90.28;100986.19;10448632;28;20041;-77
2023/07/30 11:29:54;;;;;;;3.10;1.17;;;;;;;23.37;94.36;100992.09;10432611;28;20036;-77
2023/07/30 11:34:54;;;;;;;5.15;1.45;;;;;;;24.69;87.91;101003.81;10476100;28;20068;-76
2023/07/30 11:39:55;;;;;;;5.30;2.40;;;;;;;24.93;88.49;100994.69;10466269;28;20052;-76
2023/07/30 11:44:56;;;;;;;5.70;1.43;;;;;;;23.88;97.24;101001.66;10469280;28;20045;-76
2023/07/30 11:49:57;;;;;;;5.93;1.57;;;;;;;23.53;98.61;100997.38;10470376;28;20041;-75
2023/07/30 11:55:03;;;;;;;5.97;1.30;;;;;;;22.86;100.00;101016.22;10487489;28;20043;-75
2023/07/30 12:00:08;;;;;;;6.28;2.28;;;;;;;23.16;100.00;101009.06;10460758;28;20044;-77
2023/07/30 12:05:11;;;;;;;4.13;1.90;;;;;;;24.54;99.40;101008.38;10481485;28;20151;-75
2023/07/30 12:10:13;;;;;;;9.73;2.22;;;;;;;23.61;100.00;101006.25;10474053;28;20033;-76
2023/07/30 12:15:13;;;;;;;12.52;2.72;;;;;;;24.81;96.72;101014.44;10486061;28;20123;-77
2023/07/30 12:20:14;;;;;;;15.30;3.73;;;;;;;26.05;96.00;101020.16;10483560;28;20037;-75
2023/07/30 12:25:15;;;;;;;6.73;1.97;;;;;;;25.98;83.75;101019.34;10435227;28;20037;-76
2023/07/30 12:30:16;;;;;;;8.60;2.47;;;;;;;25.58;83.23;101033.28;10442187;28;20072;-77
2023/07/30 12:35:18;;;;;;;18.48;3.38;;;;;;;23.86;90.90;101033.75;10444182;28;20048;-76
2023/07/30 12:40:19;;;;;;;4.63;1.60;;;;;;;23.41;100.00;101033.03;10438439;28;20485;-77
2023/07/30 12:45:20;;;;;;;6.23;2.27;;;;;;;23.73;100.00;101032.03;10426049;28;20048;-76
2023/07/30 12:50:21;;;;;;;4.13;2.53;;;;;;;22.59;100.00;101020.66;10434896;28;20041;-78
2023/07/30 12:55:21;;;;;;;6.50;1.70;;;;;;;22.07;100.00;101026.78;10442908;28;20508;-78
2023/07/30 13:00:22;;;;;;;5.67;1.87;;;;;;;21.28;100.00;101027.28;10445781;28;20105;-76
2023/07/30 13:05:23;;;;;;;11.17;2.27;;;;;;;22.25;100.00;101016.16;10447147;28;20334;-76
2023/07/30 13:10:26;;;;;;;12.57;2.63;;;;;;;24.14;100.00;101017.59;10443519;28;20120;-78
2023/07/30 13:15:29;;;;;;;9.93;1.83;;;;;;;25.73;95.02;101017.00;10444289;28;20033;-76
2023/07/30 13:20:32;;;;;;;6.95;1.60;;;;;;;25.95;86.71;101032.81;10443403;28;20044;-77
2023/07/30 13:25:35;;;;;;;4.88;2.20;;;;;;;25.15;86.68;101024.81;10423000;28;20036;-76
2023/07/30 13:30:36;;;;;;;5.50;1.50;;;;;;;23.20;92.91;101029.50;10423403;28;20043;-76
2023/07/30 13:35:37;;;;;;;;;;;;;;;22.23;100.00;101017.91;10440653;28;20187;-77
2023/07/30 13:40:38;;;;;;;5.72;3.20;;;;;;;22.29;100.00;101015.25;10416839;28;19920;-76
2023/07/30 13:45:39;;;;;;;7.03;2.73;;;;;;;21.70;100.00;101019.56;10422452;28;20037;-76
2023/07/30 13:50:39;;;;;;;12.20;3.73;;;;;;;23.40;100.00;101015.25;10448494;28;20389;-77
2023/07/30 13:55:41;;;;;;;5.17;1.43;;;;;;;24.52;88.76;101012.84;10446041;28;20041;-76
2023/07/30 14:00:44;;;;;;;7.03;1.90;;;;;;;25.33;84.27;101022.81;10438223;28;20076;-77
2023/07/30 14:05:45;;;;;;;6.65;2.20;;;;;;;23.69;85.22;101007.09;10408573;28;20102;-79
2023/07/30 14:10:48;;;;;;;6.23;1.23;;;;;;;22.68;99.44;101014.44;10403982;28;20103;-78
2023/07/30 14:15:50;;;;;;;8.05;2.45;;;;;;;22.93;100.00;101004.66;10435086;28;20037;-79
2023/07/30 14:20:50;;;;;;;12.13;8.00;;;;;;;22.58;100.00;101011.75;10433045;28;20141;-75
2023/07/30 14:25:51;;;;;;;8.97;4.40;;;;;;;22.15;97.89;101009.94;10431620;28;20051;-79
2023/07/30 14:30:52;;;;;;;6.23;2.83;;;;;;;22.00;94.11;101021.44;10438457;28;20542;-78
2023/07/30 14:35:53;;;;;;;5.73;1.90;;;;;;;22.39;97.95;101016.19;10441714;28;20045;-78
2023/07/30 14:40:54;;;;;;;5.40;2.00;;;;;;;22.64;93.01;101012.66;10439809;28;20492;-76
2023/07/30 14:45:54;;;;;;;9.10;2.30;;;;;;;22.56;97.26;101008.22;10428214;28;20044;-79
2023/07/30 14:50:55;;;;;;;7.97;1.80;;;;;;;22.99;91.57;101009.97;10417428;28;20044;-80
2023/07/30 14:55:55;;;;;;;4.60;1.20;;;;;;;23.28;87.62;101013.50;10465829;28;20108;-80
2023/07/30 15:00:56;;;;;;;6.10;1.87;;;;;;;23.59;87.61;101005.38;10463402;28;20053;-84
2023/07/30 15:05:56;;;;;;;5.23;1.53;;;;;;;24.00;83.00;101009.66;10454776;28;20037;-78
2023/07/30 15:10:57;;;;;;;5.60;2.20;;;;;;;24.13;80.26;101002.47;10465487;28;20040;-79
2023/07/30 15:15:57;;;;;;;4.93;1.73;;;;;;;24.26;82.73;100995.22;10451614;28;20080;-79
2023/07/30 15:20:58;;;;;;;6.67;2.63;;;;;;;23.78;79.65;100975.91;10471775;28;20132;-79
2023/07/30 15:25:59;;;;;;;6.37;1.23;;;;;;;22.65;87.00;100990.44;10496630;28;20037;-77
2023/07/30 15:30:59;;;;;;;11.13;2.90;;;;;;;22.49;87.84;100990.44;10469854;28;20033;-78
2023/07/30 15:36:00;;;;;;;8.03;2.20;;;;;;;22.01;91.25;100987.69;10500271;28;20044;-76
2023/07/30 15:41:00;;;;;;;5.87;1.73;;;;;;;22.03;92.24;100996.56;10481449;28;20400;-77
2023/07/30 15:46:01;;;;;;;4.40;1.57;;;;;;;22.07;91.20;100992.13;10510258;28;20035;-77
2023/07/30 15:51:02;;;;;;;7.67;2.23;;;;;;;21.52;95.18;100991.94;10479758;28;20510;-79
2023/07/30 15:56:03;;;;;;;3.73;1.80;;;;;;;21.65;92.61;100992.03;10455730;28;20439;-79
2023/07/30 16:01:08;;;;;;;4.53;1.87;;;;;;;21.74;87.25;100992.06;10481111;28;20166;-77
2023/07/30 16:06:09;;;;;;;2.92;1.40;;;;;;;21.38;89.61;100997.19;10486485;28;20058;-80
2023/07/30 16:11:09;;;;;;;4.53;2.35;;;;;;;21.30;95.37;100993.59;10483771;28;20048;-77
2023/07/30 16:16:12;;;;;;;4.50;1.40;;;;;;;21.25;90.48;100993.59;10479014;28;20029;-77
2023/07/30 16:21:13;;;;;;;10.50;2.78;;;;;;;20.90;86.92;101001.34;10481450;28;20047;-80
2023/07/30 16:26:14;;;;;;;6.65;2.15;;;;;;;20.59;88.07;100985.09;10484932;28;20506;-77
2023/07/30 16:31:15;;;;;;;8.25;3.28;;;;;;;20.50;90.76;100999.22;10478787;28;20033;-78
2023/07/30 16:36:15;;;;;;;12.40;3.20;;;;;;;20.28;95.56;100995.47;10492707;28;20044;-77
2023/07/30 16:41:16;;;;;;;11.40;2.05;;;;;;;19.88;100.00;101001.25;10482371;28;20049;-77
2023/07/30 16:46:16;;;;;;;7.55;2.67;;;;;;;19.58;100.00;101007.97;10467047;28;20114;-78
2023/07/30 16:51:17;;;;;;;9.98;1.38;;;;;;;19.43;100.00;101029.88;10443044;28;20076;-78
2023/07/30 16:56:18;;;;;;;7.47;2.75;;;;;;;19.33;100.00;101034.16;10422789;28;20123;-78
2023/07/30 17:01:21;;;;;;;16.13;3.08;;;;;;;19.07;100.00;101045.28;10443095;28;20560;-80
2023/07/30 17:06:22;;;;;;;7.18;2.38;;;;;;;18.52;100.00;101083.22;10441395;28;20033;-78
2023/07/30 17:11:22;;;;;;;8.65;2.95;;;;;;;17.34;100.00;101099.28;10423490;28;20120;-81
2023/07/30 17:16:23;;;;;;;5.68;3.28;;;;;;;16.18;100.00;101126.22;10417320;28;20041;-78
2023/07/30 17:21:25;;;;;;;15.80;9.32;;;;;;;15.61;100.00;101157.03;10442659;28;20040;-79
2023/07/30 17:26:26;;;;;;;17.55;5.70;;;;;;;15.26;100.00;101169.97;10415345;28;20097;-78
2023/07/30 17:31:27;;;;;;;11.30;4.55;;;;;;;15.11;100.00;101165.97;10424818;28;20041;-78
2023/07/30 17:36:27;;;;;;;9.18;3.55;;;;;;;15.07;100.00;101168.44;10429044;28;20128;-78
2023/07/30 17:41:28;;;;;;;11.43;4.07;;;;;;;15.01;100.00;101166.50;10461979;28;20069;-80
2023/07/30 17:46:28;;;;;;;10.20;3.40;;;;;;;15.12;100.00;101161.59;10493171;28;20044;-79
2023/07/30 17:51:29;;;;;;;13.18;3.80;;;;;;;15.19;100.00;101158.31;10476161;28;20040;-80
2023/07/30 17:56:30;;;;;;;12.80;4.63;;;;;;;15.26;100.00;101157.69;10476821;28;20172;-80
2023/07/30 18:01:34;;;;;;;13.93;4.38;;;;;;;15.29;100.00;101143.72;10481687;28;20064;-79
2023/07/30 18:06:34;;;;;;;8.25;3.75;;;;;;;15.33;100.00;101149.97;10472601;28;20044;-80
2023/07/30 18:11:35;;;;;;;8.88;4.05;;;;;;;15.30;100.00;101145.50;10511695;28;20444;-80
2023/07/30 18:16:36;;;;;;;7.70;4.60;;;;;;;15.22;100.00;101142.59;10495424;28;20040;-80
2023/07/30 18:21:36;;;;;;;16.92;4.57;;;;;;;15.17;100.00;101140.69;10478119;28;20043;-80
2023/07/30 18:26:37;;;;;;;8.02;3.63;;;;;;;15.08;100.00;101138.59;10482129;28;20047;-81
2023/07/30 18:31:43;;;;;;;7.40;3.72;;;;;;;15.02;100.00;101146.31;10476105;28;20056;-80
2023/07/30 18:36:43;;;;;;;7.65;4.50;;;;;;;14.90;100.00;101141.53;10473690;28;20041;-80
2023/07/30 18:41:44;;;;;;;6.80;3.55;;;;;;;14.76;100.00;101136.69;10463884;28;20072;-81
2023/07/30 18:46:44;;;;;;;12.80;5.43;;;;;;;14.67;100.00;101145.09;10474192;28;20064;-79
2023/07/30 18:51:45;;;;;;;10.75;3.50;;;;;;;14.58;100.00;101141.28;10478597;28;20079;-79
2023/07/30 18:56:45;;;;;;;6.10;3.33;;;;;;;14.48;100.00;101126.88;10478779;28;20041;-79
2023/07/30 19:01:46;;;;;;;9.80;3.47;;;;;;;14.43;100.00;101123.16;10479576;28;20182;-79
2023/07/30 19:06:48;;;;;;;12.80;4.53;;;;;;;14.41;100.00;101120.50;10476140;28;20086;-78
2023/07/30 19:11:49;;;;;;;11.35;3.92;;;;;;;14.36;100.00;101107.16;10474071;28;20051;-78
2023/07/30 19:16:49;;;;;;;13.50;4.10;;;;;;;14.34;100.00;101093.03;10483028;28;20043;-78
2023/07/30 19:21:50;;;;;;;10.98;4.65;;;;;;;14.33;100.00;101093.00;10474857;28;20484;-77
2023/07/30 19:26:50;;;;;;;9.65;4.50;;;;;;;14.30;100.00;101088.50;10478438;28;20044;-78
2023/07/30 19:31:51;;;;;;;12.25;4.78;;;;;;;14.24;100.00;101078.66;10457125;28;20048;-77
2023/07/30 19:36:51;;;;;;;10.30;4.95;;;;;;;14.32;100.00;101080.66;10484363;28;20074;-78
2023/07/30 19:41:52;;;;;;;11.02;4.82;;;;;;;14.35;100.00;101075.50;10484754;28;20047;-77
2023/07/30 19:46:52;;;;;;;10.55;5.50;;;;;;;14.31;100.00;101071.84;10485916;28;20178;-77
2023/07/30 19:51:53;;;;;;;8.95;5.45;;;;;;;14.33;100.00;101058.78;10515288;28;20047;-77
2023/07/30 19:56:56;;;;;;;9.50;4.80;;;;;;;14.31;100.00;101052.56;10459887;28;20045;-79
2023/07/30 20:01:56;;;;;;;12.07;4.82;;;;;;;14.31;100.00;101042.03;10441878;28;20064;-77
2023/07/30 20:06:57;;;;;;;15.20;5.93;;;;;;;14.33;100.00;101035.06;10445946;28;20136;-77
2023/07/30 20:11:57;;;;;;;15.52;6.75;;;;;;;14.34;100.00;101026.34;10445644;28;20067;-77
2023/07/30 20:16:58;;;;;;;13.95;6.70;;;;;;;14.32;100.00;101026.25;10478835;28;20119;-77
2023/07/30 20:21:58;;;;;;;10.85;5.32;;;;;;;14.28;100.00;101019.09;10440022;28;20129;-78
2023/07/30 20:27:00;;;;;;;13.07;6.28;;;;;;;14.30;100.00;101011.28;10429243;28;20396;-78
2023/07/30 20:32:01;;;;;;;11.20;5.97;;;;;;;14.29;100.00;101004.22;10442369;28;20440;-77
2023/07/30 20:37:02;;;;;;;11.20;5.97;;;;;;;14.37;100.00;101015.91;10444810;28;20102;-77
2023/07/30 20:42:02;;;;;;;12.43;5.95;;;;;;;14.38;100.00;101001.91;10440890;28;20052;-77
2023/07/30 20:47:05;;;;;;;17.13;6.00;;;;;;;14.42;100.00;100981.81;10426885;28;21600;-78
2023/07/30 20:52:06;;;;;;;15.43;7.13;;;;;;;14.43;100.00;100983.59;10401235;28;20132;-77
2023/07/30 20:57:06;;;;;;;13.65;7.40;;;;;;;14.46;100.00;100988.97;10444689;28;20033;-77
2023/07/30 21:02:07;;;;;;;17.08;7.93;;;;;;;14.47;100.00;100990.78;10426214;28;20063;-78
2023/07/30 21:07:07;;;;;;;16.42;6.95;;;;;;;14.47;100.00;100988.13;10444859;28;20090;-78
2023/07/30 21:12:08;;;;;;;14.23;6.07;;;;;;;14.49;100.00;100979.47;10441324;28;20044;-78
2023/07/30 21:17:08;;;;;;;16.90;7.40;;;;;;;14.49;100.00;100978.56;10443160;28;20111;-78
2023/07/30 21:22:09;;;;;;;19.33;8.40;;;;;;;14.52;100.00;100973.38;10439585;28;20045;-78
2023/07/30 21:27:10;;;;;;;15.75;7.82;;;;;;;14.51;100.00;100966.31;10441733;28;20037;-78
2023/07/30 21:32:11;;;;;;;13.27;7.32;;;;;;;14.53;100.00;100968.19;10437668;28;20557;-79
2023/07/30 21:37:12;;;;;;;12.17;6.60;;;;;;;14.58;100.00;100970.06;10443182;28;20499;-78
2023/07/30 21:42:12;;;;;;;11.80;6.50;;;;;;;14.60;100.00;100971.03;10441250;28;20124;-78
2023/07/30 21:47:13;;;;;;;16.52;8.75;;;;;;;14.66;100.00;100969.47;10442026;28;20140;-78
2023/07/30 21:52:23;;;;;;;16.27;7.95;;;;;;;14.71;100.00;100955.59;10430219;28;20128;-78
2023/07/30 21:57:23;;;;;;;16.15;7.07;;;;;;;14.75;100.00;100973.28;10477608;28;20040;-77
2023/07/30 22:02:24;;;;;;;17.30;6.20;;;;;;;14.71;100.00;100959.13;10470940;28;20037;-78
2023/07/30 22:07:24;;;;;;;14.00;7.47;;;;;;;14.74;100.00;100950.41;10476926;28;20029;-78
2023/07/30 22:12:25;;;;;;;13.35;7.43;;;;;;;14.75;100.00;100949.56;10481622;28;20135;-78
2023/07/30 22:17:25;;;;;;;23.15;7.05;;;;;;;14.74;100.00;100956.59;10479793;28;20037;-78
2023/07/30 22:22:26;;;;;;;20.25;6.70;;;;;;;14.73;100.00;100953.88;10476950;28;20128;-78
2023/07/30 22:27:26;;;;;;;17.63;7.90;;;;;;;14.73;100.00;100951.25;10514800;28;20435;-78
2023/07/30 22:32:27;;;;;;;15.35;5.78;;;;;;;14.73;100.00;100953.88;10483132;28;20037;-79
2023/07/30 22:37:27;;;;;;;15.93;7.55;;;;;;;14.74;100.00;100956.59;10480494;28;20037;-79
2023/07/30 22:42:28;;;;;;;18.35;5.50;;;;;;;14.75;100.00;100950.47;10478990;28;20054;-78
2023/07/30 22:47:28;;;;;;;17.20;7.25;;;;;;;14.73;100.00;100956.53;10481747;28;20092;-78